Kezdőlap
METAR-TAF:

METAR-TAF

Repülőterek :

Sparta, Wisconsin, Amerikai Egyesült Államok

földrajzi szélesség: 43-57-30N, földrajzi hosszúság: 090-44-16W, magasság: 255 m

Jelenlegi meteorológiai megfigyelések

A jelentés 11 perccel ezelõtt készült, 07:35 UTC
Szélcsend
Hőmérséklet 17°C
Páratartalom 100%
Légköri nyomás 1012 hPa
Látótávolság: 11.3 km
Derült ég

METAR: KCMY 100735Z AUTO 00000KT 7SM CLR 17/17 A2987 RMK AO2 LTG DSNT NW T01650165

Idő: 02:46 (07:46 UTC)


TAF: hiányzik

Meteorológiai megfigyelések és előrejelzések több, mint 4000 repülőtéren (METAR és TAF jelentéseket).

A térképen piros és sárga pontok jelzik az elérhető meteorológiai állomásokat.

Mozgassa az egeret a pont fölött, hogy megjelenjen az állomás neve.

Azután kattintson az időjárási megfigyelések és előrejelzések megtekintéséhez.

A térkép megváltoztatása: kattintson a fekete keresztel jelölt zöld gombra ráközelítéshez, a vonallal jelölt zöld gombra távolításhoz, vagy a zöld nyilakra a szomszédos térképek eléréséhez.


METAR-TAF: